Terminal Aerodrome Forecast
Issued by NWS

Home | Current Version | Previous Version | Text Only | Print | Product List | Glossary On
Versions: 1 2 3 4 5 6 7 8 9 10 11 12 13 14
821
FTUS45 KABQ 061133
TAFGUP
TAF
KGUP 061133Z 0612/0712 23008KT P6SM BKN130
     FM061700 23012G22KT P6SM SCT130
     FM062000 24022G32KT P6SM FEW150
     FM070100 23012G22KT P6SM SCT200=

USA.gov is the U.S. government's official web portal to all federal, state and local government web resources and services.